Accueil
METAR-TAF:

METAR-TAF

Aéroports :

Benguela, Angola

latitude: 12-36-30S, longitude: 13-24-10E, altitude: 36 m

Observation

Le bulletin a été fait il y a 11 heures et 4 minutes, à 14:00 UTC
Vent 10 kt de nord-ouest
Température 30°C
Humidité 84%
Pression 1010 hPa
Visibilité 10 km ou plus
Quelques nuages à une hauteur de 2000 ft
Nuages fragmentés à une hauteur de 10000 ft

METAR: FNBG 101400Z 32010KT 9999 FEW020 BKN100 30/27 Q1010

Heure: 02:04 (01:04 UTC)

Prévision

Le bulletin a été fait il y a 2 heures et 34 minutes, à 22:30 UTC
Prévision valable du 11 à 00 UTC au 11 à 12 UTC
Vent 4 kt de sud
Visibilité 10 km ou plus
Nuages épars à une hauteur de 1600 ft
Quelques nuages à une hauteur de 2000 ft
Evoluant progressivement
du 11 à 10 UTC au 11 à 12 UTC
Vent 6 kt de ouest/nord-ouest

TAF: FNBG 102230Z 1100/1112 19004KT 9999 SCT016 FEW020 BECMG 1110/1112 30006KT

Observations et prévisions météorologiques de plus de 4000 aéroports (messages METAR et TAF).

Les stations disponibles sont représentées par des disques jaunes et rouges sur la carte.

Passer la souris dessus pour voir le nom de la station.

Cliquer dessus pour voir les observations et prévisions météorologiques.

Pour changer de carte: cliquez sur les boutons verts avec une croix noire pour zoomer, sur le bouton vert avec un tiret pour effectuer un zoom arrière, ou sur les flèches vertes pour les cartes adjacentes.


METAR-TAF: